LLHA/HFA METAR and TAF weather

Enter ICAO airport designator
Station Type Date Time Source
LLHA METAR 2019/10/15 04:00 UTC NOAA

LLHA 150400Z 13014KT CAVOK 30/12 Q1013


Station Type Date Time Source
LLHA Decoded METAR 2019/10/15 04:00 UTC NOAA

Sde-Haifa Haifa, Israel (LLHA) 32-48N 035-02E 8M
Oct 15, 2019 - 12:00 AM EDT / 2019.10.15 0400 UTC
Wind: from the SE (130 degrees) at 16 MPH (14 KT):0
Visibility: greater than 7 mile(s):0
Temperature: 86 F (30 C)
Dew Point: 53 F (12 C)
Relative Humidity: 33%
Pressure (altimeter): 29.91 in. Hg (1013 hPa)
ob: LLHA 150400Z 13014KT CAVOK 30/12 Q1013
cycle: 4

Station Type Date Time Source
LLHA TAF 2019/10/14 18:00 UTC NOAA

TAF LLHA 141708Z 1418/1518 VRB04KT CAVOK PROB40 1501/1507 12010KT 9000 RA FEW080TCU BKN100 PROB30 1507/1518 9000 RA FEW080CB BKN100 TX34/1512Z TN27/1503Z

Example: see airport list